createdAt,value
2018-11-28T00:00:29.114Z,20.41
2018-11-28T00:05:32.481Z,20.41
2018-11-28T00:10:35.794Z,20.36
2018-11-28T00:15:39.140Z,20.39
2018-11-28T00:20:42.481Z,20.37
2018-11-28T00:25:45.820Z,20.34
2018-11-28T00:30:49.144Z,20.31
2018-11-28T00:35:52.497Z,20.38
2018-11-28T00:40:55.850Z,20.40
2018-11-28T00:45:59.231Z,20.36
2018-11-28T00:51:02.587Z,20.33
2018-11-28T00:56:06.090Z,20.33
2018-11-28T01:01:09.459Z,20.33
2018-11-28T01:06:12.827Z,20.30
2018-11-28T01:11:16.205Z,20.25
2018-11-28T01:16:19.553Z,20.22
2018-11-28T01:21:22.906Z,20.23
2018-11-28T01:26:26.279Z,20.20
2018-11-28T01:31:29.606Z,20.19
2018-11-28T01:36:32.963Z,20.14
2018-11-28T01:41:36.308Z,20.13
2018-11-28T01:46:39.673Z,20.10
2018-11-28T01:51:43.008Z,20.09
2018-11-28T01:56:46.338Z,20.06
2018-11-28T02:01:49.681Z,20.05
2018-11-28T02:06:53.013Z,20.03
2018-11-28T02:11:56.366Z,19.99
2018-11-28T02:16:59.719Z,19.96
2018-11-28T02:22:03.060Z,19.96
2018-11-28T02:27:06.440Z,19.93
2018-11-28T02:32:09.772Z,19.94
2018-11-28T02:37:13.079Z,19.89
2018-11-28T02:42:16.443Z,19.90
2018-11-28T02:47:19.792Z,19.87
2018-11-28T02:52:23.110Z,19.85
2018-11-28T02:57:26.429Z,19.85
2018-11-28T03:02:29.756Z,19.82
2018-11-28T03:07:33.109Z,19.79
2018-11-28T03:12:36.439Z,19.79
2018-11-28T03:17:39.751Z,19.78
2018-11-28T03:22:43.095Z,19.78
2018-11-28T03:27:46.417Z,19.76
2018-11-28T03:32:49.750Z,19.75
2018-11-28T03:37:53.072Z,19.72
2018-11-28T03:42:56.390Z,19.71
2018-11-28T03:47:59.735Z,19.70
2018-11-28T03:53:03.096Z,19.68
2018-11-28T03:58:06.406Z,19.67
2018-11-28T04:03:09.768Z,19.67
2018-11-28T04:08:13.132Z,19.65
2018-11-28T04:13:16.459Z,19.63
2018-11-28T04:18:19.815Z,19.63
2018-11-28T04:28:32.530Z,19.61
2018-11-28T04:33:35.904Z,19.71
2018-11-28T04:38:39.283Z,19.67
2018-11-28T04:43:42.654Z,19.65
2018-11-28T04:48:45.992Z,19.64
2018-11-28T04:53:49.311Z,19.61
2018-11-28T04:58:52.639Z,19.56
2018-11-28T05:03:55.956Z,19.56
2018-11-28T05:08:59.303Z,19.54
2018-11-28T05:14:02.625Z,19.52
2018-11-28T05:19:06.075Z,19.52
2018-11-28T05:24:09.398Z,19.49
2018-11-28T05:29:12.726Z,19.49
2018-11-28T05:34:16.030Z,19.48
2018-11-28T05:39:19.356Z,19.47
2018-11-28T05:44:22.698Z,19.46
2018-11-28T05:49:26.045Z,19.45
2018-11-28T05:54:29.393Z,19.45
2018-11-28T05:59:32.761Z,19.43
2018-11-28T06:04:36.084Z,19.41
2018-11-28T06:09:39.464Z,19.40
2018-11-28T06:14:42.787Z,19.40
2018-11-28T06:19:46.136Z,19.40
2018-11-28T06:24:49.462Z,19.38
2018-11-28T06:29:52.839Z,19.37
2018-11-28T06:34:56.168Z,19.37
2018-11-28T06:39:59.511Z,19.35
2018-11-28T06:45:03.097Z,19.34
2018-11-28T06:50:09.890Z,19.33
2018-11-28T06:55:15.565Z,19.31
2018-11-28T07:00:20.936Z,19.29
2018-11-28T07:05:24.342Z,19.28
2018-11-28T07:10:27.660Z,19.27
2018-11-28T07:15:31.007Z,19.25
2018-11-28T07:20:34.342Z,19.24
2018-11-28T07:25:37.674Z,19.22
2018-11-28T07:30:41.020Z,19.23
2018-11-28T07:35:44.344Z,19.14
2018-11-28T07:40:47.727Z,19.20
2018-11-28T07:45:52.143Z,19.20
2018-11-28T07:50:55.547Z,19.19
2018-11-28T07:55:58.878Z,12.54
2018-11-28T08:01:02.319Z,11.19
2018-11-28T08:06:05.751Z,12.73
2018-11-28T08:11:09.096Z,17.24
2018-11-28T08:16:12.428Z,18.65
2018-11-28T08:21:15.763Z,19.30
2018-11-28T08:26:19.118Z,19.65
2018-11-28T08:31:22.439Z,19.90
2018-11-28T08:36:25.787Z,19.99
2018-11-28T08:41:29.132Z,20.34
2018-11-28T08:46:32.476Z,20.34
2018-11-28T08:51:35.801Z,20.20
2018-11-28T08:56:39.128Z,20.12
2018-11-28T09:01:42.474Z,20.05
2018-11-28T09:06:45.831Z,18.84
2018-11-28T09:11:49.167Z,19.64
2018-11-28T09:16:52.478Z,19.84
2018-11-28T09:21:55.811Z,20.30
2018-11-28T09:26:59.170Z,20.53
2018-11-28T09:32:02.515Z,20.57
2018-11-28T09:37:05.977Z,20.64
2018-11-28T09:42:09.326Z,20.46
2018-11-28T09:47:12.653Z,20.36
2018-11-28T09:52:15.963Z,20.25
2018-11-28T09:57:19.273Z,20.16
2018-11-28T10:02:22.611Z,20.15
2018-11-28T10:07:25.943Z,20.03
2018-11-28T10:12:29.250Z,20.00
2018-11-28T10:17:32.609Z,19.95
2018-11-28T10:22:36.022Z,20.21
2018-11-28T10:27:39.442Z,20.52
2018-11-28T10:32:42.778Z,20.68
2018-11-28T10:37:46.151Z,20.71
2018-11-28T10:42:51.729Z,20.64
2018-11-28T10:47:55.099Z,20.48
2018-11-28T10:52:58.416Z,20.41
2018-11-28T10:58:01.742Z,20.35
2018-11-28T11:03:11.736Z,20.30
2018-11-28T11:08:20.533Z,20.30
2018-11-28T11:13:29.059Z,20.23
2018-11-28T11:18:32.395Z,20.19
2018-11-28T11:23:35.723Z,20.33
2018-11-28T11:28:39.051Z,20.31
2018-11-28T11:33:42.382Z,20.42
2018-11-28T11:38:45.722Z,20.56
2018-11-28T11:43:49.066Z,20.57
2018-11-28T11:48:59.012Z,20.58
2018-11-28T11:54:02.331Z,20.51
2018-11-28T11:59:05.650Z,20.49
2018-11-28T12:04:08.974Z,20.42
2018-11-28T12:09:12.333Z,20.44
2018-11-28T12:14:15.660Z,20.33
2018-11-28T12:19:18.979Z,20.33
2018-11-28T12:24:22.292Z,20.30
2018-11-28T12:29:25.634Z,20.22
2018-11-28T12:34:28.967Z,20.26
2018-11-28T12:39:32.315Z,20.28
2018-11-28T12:44:35.634Z,20.34
2018-11-28T12:49:39.027Z,20.43
2018-11-28T12:54:42.353Z,20.65
2018-11-28T12:59:45.667Z,20.54
2018-11-28T13:04:48.986Z,20.42
2018-11-28T13:09:52.639Z,20.40
2018-11-28T13:14:55.985Z,20.35
2018-11-28T13:19:59.324Z,20.35
2018-11-28T13:25:02.723Z,20.39
2018-11-28T13:30:13.738Z,20.32
2018-11-28T13:35:19.950Z,20.40
2018-11-28T13:40:23.292Z,20.41
2018-11-28T13:45:29.122Z,20.38
2018-11-28T13:50:32.462Z,20.43
2018-11-28T13:55:39.580Z,20.46
2018-11-28T14:00:41.764Z,20.44
2018-11-28T14:05:45.121Z,20.45
2018-11-28T14:10:48.466Z,20.46
2018-11-28T14:15:51.797Z,20.59
2018-11-28T14:20:55.103Z,20.53
2018-11-28T14:25:58.485Z,20.47
2018-11-28T14:31:01.864Z,20.48
2018-11-28T14:36:05.484Z,20.35
2018-11-28T14:41:08.793Z,20.32
2018-11-28T14:46:12.143Z,20.26
2018-11-28T14:51:16.034Z,20.25
2018-11-28T14:56:19.467Z,20.32
2018-11-28T15:01:23.206Z,20.37
2018-11-28T15:06:32.732Z,20.52
2018-11-28T15:11:36.116Z,20.54
2018-11-28T15:16:39.463Z,20.51
2018-11-28T15:21:42.788Z,20.49
2018-11-28T15:26:46.271Z,20.54
2018-11-28T15:31:49.832Z,20.47
2018-11-28T15:36:53.228Z,20.37
2018-11-28T15:41:56.602Z,20.29
2018-11-28T15:46:59.985Z,20.26
2018-11-28T15:52:03.347Z,20.22
2018-11-28T15:57:06.778Z,20.18
2018-11-28T16:02:10.163Z,20.18
2018-11-28T16:07:13.498Z,20.25
2018-11-28T16:12:16.900Z,20.36
2018-11-28T16:17:20.339Z,20.43
2018-11-28T16:22:23.723Z,20.35
2018-11-28T16:27:28.024Z,20.30
2018-11-28T16:32:31.377Z,20.28
2018-11-28T16:37:34.739Z,20.26
2018-11-28T16:42:38.139Z,20.24
2018-11-28T16:47:41.485Z,20.23
2018-11-28T16:52:44.987Z,20.28
2018-11-28T16:57:51.847Z,20.21
2018-11-28T17:02:55.775Z,20.31
2018-11-28T17:07:59.128Z,20.60
2018-11-28T17:13:02.479Z,21.17
2018-11-28T17:18:06.569Z,21.29
2018-11-28T17:23:09.959Z,21.38
2018-11-28T17:28:13.343Z,21.33
2018-11-28T17:33:16.679Z,21.43
2018-11-28T17:38:20.036Z,21.53
2018-11-28T17:43:23.367Z,21.46
2018-11-28T17:48:26.711Z,21.42
2018-11-28T17:53:30.065Z,21.41
2018-11-28T17:58:33.415Z,21.38
2018-11-28T18:03:36.809Z,21.48
2018-11-28T18:08:40.146Z,21.51
2018-11-28T18:13:43.903Z,21.58
2018-11-28T18:18:47.249Z,21.61
2018-11-28T18:23:50.595Z,21.63
2018-11-28T18:28:53.945Z,21.64
2018-11-28T18:33:57.300Z,21.48
2018-11-28T18:39:00.681Z,21.56
2018-11-28T18:44:04.084Z,21.60
2018-11-28T18:49:07.442Z,21.68
2018-11-28T18:54:10.789Z,21.76
2018-11-28T18:59:14.138Z,21.68
2018-11-28T19:09:25.436Z,21.65
2018-11-28T19:14:28.752Z,21.76
2018-11-28T19:19:32.074Z,21.68
2018-11-28T19:24:35.408Z,21.76
2018-11-28T19:29:38.748Z,21.72
2018-11-28T19:39:45.396Z,21.73
2018-11-28T19:44:48.734Z,21.70
2018-11-28T19:49:52.064Z,21.79
2018-11-28T19:54:55.391Z,21.72
2018-11-28T20:05:08.371Z,21.86
2018-11-28T20:10:13.952Z,21.84
2018-11-28T20:15:18.600Z,21.79
2018-11-28T20:20:22.020Z,21.68
2018-11-28T20:25:25.726Z,21.59
2018-11-28T20:30:38.352Z,21.50
2018-11-28T20:35:42.667Z,21.45
2018-11-28T20:40:46.018Z,21.43
2018-11-28T20:45:49.364Z,21.36
2018-11-28T20:50:53.127Z,21.43
2018-11-28T20:55:57.489Z,21.32
2018-11-28T21:01:00.847Z,21.29
2018-11-28T21:06:04.251Z,21.32
2018-11-28T21:11:07.626Z,21.24
2018-11-28T21:16:10.946Z,21.29
2018-11-28T21:21:14.274Z,21.25
2018-11-28T21:26:17.616Z,21.11
2018-11-28T21:31:20.966Z,21.18
2018-11-28T21:36:24.319Z,21.10
2018-11-28T21:41:27.674Z,21.10
2018-11-28T21:46:31.013Z,21.09
2018-11-28T21:51:34.335Z,21.06
2018-11-28T21:56:38.190Z,21.01
2018-11-28T22:01:41.027Z,20.98
2018-11-28T22:06:44.423Z,21.02
2018-11-28T22:11:47.762Z,20.85
2018-11-28T22:16:51.155Z,20.91
2018-11-28T22:21:54.507Z,20.82
2018-11-28T22:26:57.823Z,20.93
2018-11-28T22:32:01.157Z,20.93
2018-11-28T22:37:04.495Z,20.89
2018-11-28T22:42:07.848Z,20.89
2018-11-28T22:47:11.179Z,20.87
2018-11-28T22:52:14.508Z,20.88
2018-11-28T22:57:17.850Z,20.90
2018-11-28T23:02:41.396Z,20.95
2018-11-28T23:07:44.746Z,20.89
2018-11-28T23:12:48.105Z,20.97
2018-11-28T23:17:55.153Z,20.94
2018-11-28T23:22:54.838Z,20.92
2018-11-28T23:27:58.182Z,20.92
2018-11-28T23:33:02.069Z,20.91
2018-11-28T23:38:06.018Z,20.91
2018-11-28T23:43:09.365Z,20.91
2018-11-28T23:48:12.715Z,20.90
2018-11-28T23:53:16.069Z,20.93
2018-11-28T23:58:19.377Z,20.89
